KMSS/MSS METAR and TAF weather

Enter ICAO airport designator
Station Type Date Time Source
KMSS METAR 2022/12/08 11:44 UTC NOAA

KMSS 081144Z AUTO 31005KT 10SM SCT010 BKN026 OVC060 03/02 A3028 RMK AO2 T00280017


Station Type Date Time Source
KMSS Decoded METAR 2022/12/08 11:44 UTC NOAA

MASSENA INTERNATIONAL -RICHARDS FLD, NY, United States (KMSS) 44-56N 074-51W 66M
Dec 08, 2022 - 06:44 AM EST / 2022.12.08 1144 UTC
Wind: from the NW (310 degrees) at 6 MPH (5 KT):0
Visibility: 10 mile(s):0
Sky conditions: overcast
Temperature: 37.0 F (2.8 C)
Dew Point: 35.1 F (1.7 C)
Relative Humidity: 92%
Pressure (altimeter): 30.28 in. Hg (1025 hPa)
ob: KMSS 081144Z AUTO 31005KT 10SM SCT010 BKN026 OVC060 03/02 A3028 RMK AO2 T00280017
cycle: 11

Station Type Date Time Source
KMSS TAF 2022/12/08 12:22 UTC NOAA

TAF KMSS 081120Z 0812/0912 30005KT P6SM FEW008 OVC050
FM081600 32008KT P6SM SCT100
FM090000 32005KT P6SM SKC

Example: see airport list